»·PEaware :: N52KA L88-KSBP

N52KA :: L88-KSBP

FLIGHT INFORMATION

Flight Status: Arrived
Operator: Privately registered:
United States
More flights under this callsign
Pilot: Carson T. (20437)
Aircraft: CESSNA 172 SKYHAWK
(C172)
More flights by this aircraft type
Origin: L88 New Cuyama
United States
Destination: KSBP San Luis Co Regl
United States
More flights between these airports :: More routes between these airports
Route:
File this flight plan on PilotEdge
Remarks:
Altitude:
(Current/Filed)
4,500ft
Speed:
(Current/Filed)
110kts
Departed: 14-Sep-18 11:39 AM
Arrived: 14-Sep-18 12:14 PM
Distance/Time
Traveled:
50nm/0:35
Distance/Time
To Go:
Arrived

Flight Plot

Page will automatically refresh every two minutes.


Map Options




Map Legend


Flown Route
Filed Route
Departure Airport
Arrival Airport
Navaid (VOR, NDB)
Fix

Horizontal Profiles

Position Reports

Time Latitude Longitude Heading Altitude Ground
Speed
14-Sep-18 11:31 34.939971 -119.693829 23 2206ft 0kts
14-Sep-18 11:32 34.939971 -119.693829 23 2206ft 0kts
14-Sep-18 11:33 34.939971 -119.693829 23 2206ft 0kts
14-Sep-18 11:34 34.939972 -119.693829 23 2206ft 0kts
14-Sep-18 11:35 34.939973 -119.693828 23 2206ft 0kts
14-Sep-18 11:36 34.939974 -119.693828 23 2206ft 0kts
14-Sep-18 11:37 34.939975 -119.693827 23 2206ft 0kts
14-Sep-18 11:38 34.939976 -119.693827 23 2206ft 0kts
14-Sep-18 11:39 34.939977 -119.693826 23 2206ft 0kts
14-Sep-18 11:40 34.939739 -119.693953 201 2206ft 0kts
14-Sep-18 11:41 34.935708 -119.683953 114 2339ft 75kts
14-Sep-18 11:42 34.923677 -119.666839 203 2982ft 79kts
14-Sep-18 11:43 34.923394 -119.690531 299 3248ft 107kts
14-Sep-18 11:44 34.937752 -119.723878 293 3308ft 112kts
14-Sep-18 11:45 34.948204 -119.754866 292 3889ft 89kts
14-Sep-18 11:46 34.957095 -119.781647 291 4489ft 87kts
14-Sep-18 11:47 34.968019 -119.814193 292 4504ft 112kts
14-Sep-18 11:48 34.979224 -119.847806 292 4818ft 94kts
14-Sep-18 11:49 34.988281 -119.875231 291 5417ft 80kts
14-Sep-18 11:50 34.995783 -119.899176 291 5979ft 74kts
14-Sep-18 11:51 35.005401 -119.921107 313 6505ft 73kts
14-Sep-18 11:52 35.017702 -119.940446 297 7011ft 71kts
14-Sep-18 11:53 35.024946 -119.962247 293 7484ft 68kts
14-Sep-18 11:54 35.033097 -119.988271 292 7510ft 95kts
14-Sep-18 11:55 35.042873 -120.019103 292 7501ft 98kts
14-Sep-18 11:56 35.052730 -120.050467 292 7500ft 99kts
14-Sep-18 11:57 35.062582 -120.081948 292 7500ft 99kts
14-Sep-18 11:58 35.072418 -120.113416 292 7500ft 99kts
14-Sep-18 11:59 35.082250 -120.144905 292 7500ft 99kts
14-Sep-18 12:00 35.092077 -120.176411 292 7500ft 99kts
14-Sep-18 12:01 35.102540 -120.209535 293 7198ft 115kts
14-Sep-18 12:02 35.114157 -120.246555 292 6582ft 107kts
14-Sep-18 12:03 35.122494 -120.273309 292 6069ft 101kts
14-Sep-18 12:04 35.132601 -120.305838 290 5470ft 103kts
14-Sep-18 12:05 35.142964 -120.338850 290 4872ft 104kts
14-Sep-18 12:06 35.152836 -120.370679 290 4476ft 91kts
14-Sep-18 12:07 35.161158 -120.397505 290 4507ft 86kts
14-Sep-18 12:08 35.169446 -120.424285 290 4463ft 81kts
14-Sep-18 12:09 35.178430 -120.453413 290 3855ft 94kts
14-Sep-18 12:10 35.187315 -120.483514 284 3169ft 93kts
14-Sep-18 12:11 35.193172 -120.518380 279 2611ft 112kts
14-Sep-18 12:12 35.197426 -120.555845 279 1938ft 111kts
14-Sep-18 12:13 35.207338 -120.588502 304 1272ft 89kts
14-Sep-18 12:14 35.220986 -120.612319 303 906ft 79kts
14-Sep-18 12:15 35.231708 -120.631118 304 319ft 65kts
14-Sep-18 12:16 35.237442 -120.640177 2 215ft 0kts
14-Sep-18 12:17 35.237893 -120.639040 6 215ft 1kts
14-Sep-18 12:18 35.237966 -120.639040 359 215ft 0kts
14-Sep-18 12:19 35.237966 -120.639040 359 215ft 0kts
14-Sep-18 12:20 35.237966 -120.639040 359 215ft 0kts
14-Sep-18 12:21 35.237966 -120.639040 359 215ft 0kts
14-Sep-18 12:22 35.237966 -120.639040 359 215ft 0kts
14-Sep-18 12:23 35.237966 -120.639040 359 215ft 0kts
14-Sep-18 12:24 35.237966 -120.639040 359 215ft 0kts
14-Sep-18 12:25 35.237966 -120.639040 359 215ft 0kts
14-Sep-18 12:26 35.237966 -120.639040 359 215ft 0kts
14-Sep-18 12:27 35.237966 -120.639040 359 215ft 0kts
14-Sep-18 12:28 35.237966 -120.639040 359 215ft 0kts
14-Sep-18 12:29 35.237966 -120.639040 359 215ft 0kts
14-Sep-18 12:30 35.237966 -120.639040 359 215ft 0kts

Navigation Log

Ident Type
Flight plan parsing failed, navigation log unavailable